Time;durP1;ratioP1;P1;durP2;ratioP2;P2;SDS_P1;SDS_P2;PMS_P1;PMS_P2;Temp;Humidity;BMP_temperature;BMP_pressure;BME280_temperature;BME280_humidity;BME280_pressure;Samples;Min_cycle;Max_cycle;Signal;HPM_P1;HPM_P2
2023/06/11 00:00:48;;;;;;;4.35;2.13;;;;;;;16.29;48.35;101974.47;4996118;28;20545;-70
2023/06/11 00:03:13;;;;;;;5.47;2.40;;;;;;;16.19;48.09;101966.09;4978537;28;20026;-70
2023/06/11 00:05:38;;;;;;;4.63;2.22;;;;;;;16.07;48.31;101973.00;4996224;28;20092;-70
2023/06/11 00:08:04;;;;;;;5.78;2.42;;;;;;;16.13;48.86;101979.78;4995883;28;20022;-69
2023/06/11 00:10:29;;;;;;;9.18;2.78;;;;;;;15.93;49.43;101979.09;4995958;28;20041;-69
2023/06/11 00:12:55;;;;;;;4.88;2.35;;;;;;;16.12;48.54;101980.72;4995317;28;20034;-69
2023/06/11 00:15:20;;;;;;;6.20;2.33;;;;;;;15.84;49.41;101985.72;4995860;28;20080;-69
2023/06/11 00:17:47;;;;;;;7.03;2.30;;;;;;;16.17;48.48;101979.53;4994357;28;20081;-70
2023/06/11 00:20:13;;;;;;;3.90;2.22;;;;;;;16.21;48.58;101987.38;4996175;28;20022;-70
2023/06/11 00:22:40;;;;;;;7.20;2.55;;;;;;;15.98;48.81;101986.84;4994400;28;20030;-69
2023/06/11 00:25:06;;;;;;;4.40;2.30;;;;;;;15.79;49.73;101986.94;4995966;28;20045;-68
2023/06/11 00:27:36;;;;;;;5.65;2.50;;;;;;;15.81;49.54;101977.06;4994490;28;20084;-69
2023/06/11 00:30:04;;;;;;;5.55;2.10;;;;;;;15.70;50.14;101988.28;4978414;28;20022;-69
2023/06/11 00:32:33;;;;;;;6.10;2.22;;;;;;;15.68;49.97;101975.03;4978911;28;20498;-69
2023/06/11 00:34:59;;;;;;;8.40;2.53;;;;;;;15.49;50.65;101979.59;4978260;28;20056;-71
2023/06/11 00:37:25;;;;;;;6.45;2.25;;;;;;;15.70;50.50;101973.16;4996280;28;20026;-69
2023/06/11 00:39:50;;;;;;;5.75;2.47;;;;;;;15.58;50.86;101968.47;5013841;28;20050;-69
2023/06/11 00:42:19;;;;;;;3.85;2.00;;;;;;;15.68;50.53;101979.50;4997887;28;20026;-69
2023/06/11 00:44:44;;;;;;;6.95;2.88;;;;;;;15.82;49.97;101970.78;4997140;28;20026;-70
2023/06/11 00:47:10;;;;;;;6.13;2.40;;;;;;;15.58;51.07;101971.16;5014941;28;20018;-69
2023/06/11 00:49:36;;;;;;;8.20;2.63;;;;;;;15.39;51.56;101974.75;5014872;28;20053;-69
2023/06/11 00:52:03;;;;;;;6.10;2.58;;;;;;;15.29;51.72;101984.19;4981540;28;20475;-71
2023/06/11 00:54:28;;;;;;;6.35;2.33;;;;;;;15.28;51.91;101993.13;4998168;28;20423;-70
2023/06/11 00:56:54;;;;;;;5.20;2.22;;;;;;;15.24;52.51;101991.56;4997522;28;20022;-70
2023/06/11 00:59:20;;;;;;;4.93;2.15;;;;;;;15.18;52.30;101989.22;4996981;28;20030;-70
2023/06/11 01:01:57;;;;;;;6.95;2.20;;;;;;;15.23;52.89;102000.50;5014575;28;20037;-71
2023/06/11 01:04:23;;;;;;;9.20;2.50;;;;;;;15.30;52.47;101999.25;4996983;28;20022;-71
2023/06/11 01:06:54;;;;;;;5.95;2.42;;;;;;;15.35;52.05;101993.69;4996685;28;20026;-71
2023/06/11 01:09:21;;;;;;;5.00;2.15;;;;;;;15.18;52.07;101992.75;4980666;28;20029;-70
2023/06/11 01:11:48;;;;;;;4.43;2.30;;;;;;;15.18;52.02;101991.88;4997405;28;20482;-71
2023/06/11 01:14:16;;;;;;;7.95;2.45;;;;;;;15.14;53.04;101991.16;5014275;28;20029;-70
2023/06/11 01:16:52;;;;;;;5.47;2.38;;;;;;;15.28;51.85;101993.13;4996562;28;20026;-70
2023/06/11 01:19:33;;;;;;;5.03;2.55;;;;;;;15.10;52.69;101990.47;4996878;28;20029;-71
2023/06/11 01:22:03;;;;;;;10.45;3.25;;;;;;;15.34;51.07;101992.81;4996189;28;20470;-72
2023/06/11 01:24:40;;;;;;;8.23;2.30;;;;;;;15.03;52.53;101997.03;4996618;28;20096;-71
2023/06/11 01:27:18;;;;;;;6.55;2.42;;;;;;;14.93;53.39;101987.78;4996705;28;20386;-71
2023/06/11 01:29:45;;;;;;;4.18;2.00;;;;;;;15.16;52.91;101990.16;5013989;28;20033;-71
2023/06/11 01:32:11;;;;;;;4.78;2.20;;;;;;;15.11;52.54;101985.97;4996288;28;20517;-72
2023/06/11 01:34:41;;;;;;;2.95;1.98;;;;;;;14.95;52.96;101997.41;4996495;28;20471;-71
2023/06/11 01:37:09;;;;;;;4.03;2.13;;;;;;;15.09;53.68;101996.72;4980482;28;20022;-71
2023/06/11 01:39:34;;;;;;;3.13;2.15;;;;;;;14.81;53.34;101984.81;4977162;28;20061;-72
2023/06/11 01:42:00;;;;;;;5.40;2.20;;;;;;;14.85;53.22;101997.03;4994827;28;20026;-71
2023/06/11 01:44:26;;;;;;;5.97;2.75;;;;;;;14.67;54.57;101996.09;4994857;28;20085;-71
2023/06/11 01:46:51;;;;;;;6.63;2.50;;;;;;;14.86;54.40;101992.56;4994022;28;20483;-71
2023/06/11 01:49:17;;;;;;;4.93;2.35;;;;;;;14.71;54.09;101991.50;4976710;28;20066;-70
2023/06/11 01:51:42;;;;;;;4.22;2.20;;;;;;;15.11;52.84;101994.84;4993937;28;20468;-71
2023/06/11 01:54:07;;;;;;;6.70;2.30;;;;;;;15.03;53.36;101978.38;4993006;28;20038;-71
2023/06/11 01:56:33;;;;;;;3.45;2.42;;;;;;;14.61;55.00;101990.19;4993472;28;20022;-71
2023/06/11 01:58:58;;;;;;;4.90;2.30;;;;;;;14.88;54.23;102003.16;4992744;28;20030;-71
2023/06/11 02:01:24;;;;;;;3.42;2.33;;;;;;;14.70;54.37;101997.75;4992566;28;20034;-71
2023/06/11 02:03:50;;;;;;;4.05;1.90;;;;;;;14.63;55.44;102006.97;4992517;28;20053;-72
2023/06/11 02:06:15;;;;;;;7.05;2.00;;;;;;;14.80;54.64;102004.41;4975965;28;20080;-71
2023/06/11 02:08:40;;;;;;;6.25;2.65;;;;;;;14.57;55.28;102008.13;4992251;28;20033;-70
2023/06/11 02:11:06;;;;;;;5.72;2.13;;;;;;;14.50;55.35;102001.38;4992228;28;20572;-70
2023/06/11 02:13:31;;;;;;;4.32;2.03;;;;;;;14.70;54.26;101992.44;4992963;28;20037;-70
2023/06/11 02:15:59;;;;;;;7.07;2.80;;;;;;;14.68;55.01;101992.50;4992491;28;20030;-71
2023/06/11 02:18:25;;;;;;;6.30;2.20;;;;;;;14.66;55.14;101996.16;4992660;28;20038;-70
2023/06/11 02:20:50;;;;;;;8.55;2.85;;;;;;;14.55;55.12;102004.69;4992537;28;20053;-70
2023/06/11 02:23:16;;;;;;;5.32;2.60;;;;;;;14.49;55.09;101995.19;4992337;28;20026;-71
2023/06/11 02:25:41;;;;;;;10.52;2.42;;;;;;;14.48;55.70;101998.78;4992023;28;20026;-70
2023/06/11 02:28:07;;;;;;;5.55;2.33;;;;;;;14.56;55.55;102001.94;4993540;28;20033;-71
2023/06/11 02:30:32;;;;;;;6.57;2.30;;;;;;;14.46;56.13;101995.31;4991855;28;20036;-71
2023/06/11 02:32:57;;;;;;;4.60;2.35;;;;;;;14.75;54.83;102002.88;4975613;28;20464;-71
2023/06/11 02:35:23;;;;;;;7.63;2.47;;;;;;;14.41;56.08;101998.22;4992443;28;20081;-70
2023/06/11 02:37:48;;;;;;;5.13;2.15;;;;;;;14.43;55.28;101992.81;4995110;28;20066;-71
2023/06/11 02:40:13;;;;;;;5.70;2.50;;;;;;;14.39;55.55;101993.91;4995461;28;20034;-70
2023/06/11 02:42:38;;;;;;;6.93;2.60;;;;;;;14.37;56.06;102004.59;4995595;28;20030;-70
2023/06/11 02:45:05;;;;;;;3.75;2.20;;;;;;;14.24;56.14;101991.03;5012956;28;20040;-70
2023/06/11 02:47:30;;;;;;;4.50;2.30;;;;;;;14.26;57.53;101998.94;5013324;28;20018;-70
2023/06/11 02:49:55;;;;;;;4.65;2.28;;;;;;;14.45;56.47;102004.25;4995294;28;20055;-70
2023/06/11 02:52:21;;;;;;;5.93;2.42;;;;;;;14.34;56.11;102001.25;5012728;28;20033;-71
2023/06/11 02:54:46;;;;;;;6.60;2.53;;;;;;;14.28;56.41;102005.03;4995449;28;20037;-71
2023/06/11 02:57:12;;;;;;;4.65;2.13;;;;;;;14.51;56.68;102005.78;4994955;28;20383;-71
2023/06/11 02:59:37;;;;;;;10.30;2.40;;;;;;;14.47;56.61;102006.84;5012317;28;20485;-70
2023/06/11 03:02:02;;;;;;;3.58;2.35;;;;;;;14.20;56.68;101994.78;4994920;28;20021;-71
2023/06/11 03:04:28;;;;;;;6.20;2.35;;;;;;;14.27;56.43;102013.97;4995643;28;20067;-71
2023/06/11 03:06:53;;;;;;;6.03;2.38;;;;;;;14.57;56.80;102008.97;5012099;28;20025;-70
2023/06/11 03:09:18;;;;;;;6.90;2.70;;;;;;;14.39;56.04;102012.53;4994342;28;20034;-69
2023/06/11 03:11:44;;;;;;;6.65;2.88;;;;;;;14.43;57.06;102016.78;5012030;28;20026;-70
2023/06/11 03:14:09;;;;;;;5.50;2.33;;;;;;;14.42;56.13;102009.72;4994464;28;20045;-70
2023/06/11 03:16:34;;;;;;;7.18;2.53;;;;;;;14.39;57.31;102017.84;4994581;28;20022;-70
2023/06/11 03:19:00;;;;;;;6.95;3.03;;;;;;;14.53;56.51;102015.41;4994925;28;20461;-70
2023/06/11 03:21:25;;;;;;;7.43;2.75;;;;;;;14.46;57.78;102011.31;5012556;28;20549;-70
2023/06/11 03:23:50;;;;;;;5.43;2.42;;;;;;;14.67;55.87;102006.75;5011817;28;20046;-70
2023/06/11 03:26:16;;;;;;;5.50;2.60;;;;;;;14.66;55.99;102014.81;4994560;28;20029;-69
2023/06/11 03:28:41;;;;;;;5.95;2.85;;;;;;;14.66;56.63;102006.81;4994472;28;20029;-70
2023/06/11 03:31:06;;;;;;;4.43;2.25;;;;;;;14.52;57.46;102016.34;4994797;28;20022;-69
2023/06/11 03:33:32;;;;;;;7.70;2.42;;;;;;;14.69;57.04;102022.63;4994558;28;20057;-70
2023/06/11 03:35:57;;;;;;;4.82;2.20;;;;;;;14.55;57.39;102016.19;4978350;28;20025;-69
2023/06/11 03:38:22;;;;;;;7.25;2.60;;;;;;;14.48;58.13;102012.09;4994168;28;20050;-69
2023/06/11 03:40:48;;;;;;;5.53;2.20;;;;;;;14.62;57.36;102016.78;5012160;28;20029;-70
2023/06/11 03:43:13;;;;;;;7.95;2.70;;;;;;;14.57;56.45;102024.97;4994313;28;20076;-69
2023/06/11 03:45:39;;;;;;;8.20;2.50;;;;;;;14.49;57.37;102021.81;4994478;28;20026;-70
2023/06/11 03:48:05;;;;;;;4.85;2.35;;;;;;;14.53;58.05;102018.06;5011727;28;20463;-69
2023/06/11 03:50:31;;;;;;;6.57;2.75;;;;;;;14.39;57.49;102015.19;4994858;28;20101;-70
2023/06/11 03:52:56;;;;;;;8.75;2.72;;;;;;;14.40;57.61;102004.50;5012657;28;20451;-71
2023/06/11 03:55:21;;;;;;;5.82;2.28;;;;;;;14.82;56.17;102009.63;4994928;28;20379;-70
2023/06/11 03:57:47;;;;;;;6.55;2.53;;;;;;;14.55;57.44;102004.69;4994559;28;20028;-70
2023/06/11 04:00:12;;;;;;;5.90;2.35;;;;;;;14.64;57.21;102016.69;4994389;28;20065;-71
2023/06/11 04:02:38;;;;;;;4.82;2.55;;;;;;;14.60;57.09;101999.13;5014077;28;20533;-71
2023/06/11 04:05:04;;;;;;;14.18;3.20;;;;;;;14.67;57.68;102005.88;4998325;28;20026;-70
2023/06/11 04:07:29;;;;;;;5.75;2.65;;;;;;;14.52;57.27;102016.34;4982493;28;20025;-70
2023/06/11 04:09:54;;;;;;;4.53;2.20;;;;;;;14.63;58.09;102017.63;4981879;28;20110;-71
2023/06/11 04:12:20;;;;;;;7.05;2.50;;;;;;;14.59;58.22;102016.91;4997813;28;20021;-70
2023/06/11 04:14:45;;;;;;;6.25;2.33;;;;;;;14.62;57.90;102022.09;4997847;28;20022;-71
2023/06/11 04:17:10;;;;;;;5.55;2.78;;;;;;;14.65;57.91;102015.75;4997880;28;20076;-70
2023/06/11 04:19:36;;;;;;;7.40;2.90;;;;;;;14.67;57.80;102019.19;5015055;28;20022;-70
2023/06/11 04:22:01;;;;;;;5.60;2.22;;;;;;;14.64;58.50;102019.34;4997550;28;20049;-70
2023/06/11 04:24:26;;;;;;;5.40;2.63;;;;;;;14.70;58.34;102014.63;5015059;28;20065;-70
2023/06/11 04:26:52;;;;;;;3.67;2.15;;;;;;;14.68;58.07;102015.59;4997778;28;20093;-70
2023/06/11 04:29:18;;;;;;;5.78;2.90;;;;;;;14.66;57.88;102009.47;4997188;28;20029;-70
2023/06/11 04:31:46;;;;;;;6.00;2.65;;;;;;;14.76;58.31;102017.94;4997437;28;20028;-70
2023/06/11 04:34:12;;;;;;;6.25;2.58;;;;;;;14.66;58.04;102012.13;4996811;28;20041;-70
2023/06/11 04:36:40;;;;;;;7.85;2.95;;;;;;;14.73;58.14;102013.59;5014697;28;20026;-70
2023/06/11 04:39:07;;;;;;;6.90;2.80;;;;;;;14.65;58.14;102007.75;4981181;28;20052;-70
2023/06/11 04:41:32;;;;;;;8.65;2.38;;;;;;;14.72;59.32;102017.19;4997880;28;20022;-70
2023/06/11 04:44:00;;;;;;;4.63;2.58;;;;;;;14.77;58.52;102012.53;4997563;28;20022;-70
2023/06/11 04:46:26;;;;;;;9.90;3.03;;;;;;;14.76;58.01;102001.94;4997651;28;20072;-70
2023/06/11 04:48:53;;;;;;;7.45;2.78;;;;;;;14.82;58.04;102012.28;4981775;28;20036;-70
2023/06/11 04:51:20;;;;;;;5.07;2.35;;;;;;;14.95;58.33;102004.56;4997280;28;20080;-70
2023/06/11 04:53:46;;;;;;;4.93;2.65;;;;;;;14.75;57.63;102011.72;4997440;28;20029;-70
2023/06/11 04:56:11;;;;;;;4.93;2.70;;;;;;;14.76;57.55;102013.44;4980742;28;20033;-71
2023/06/11 04:58:36;;;;;;;8.02;2.97;;;;;;;14.83;59.03;102011.34;4996677;28;20533;-70
2023/06/11 05:01:05;;;;;;;7.35;2.83;;;;;;;15.27;57.60;102007.41;4996792;28;20068;-71
2023/06/11 05:03:36;;;;;;;5.88;2.50;;;;;;;15.01;58.45;102001.59;4997409;28;20021;-70
2023/06/11 05:06:03;;;;;;;5.53;2.63;;;;;;;14.98;58.56;102004.41;4997504;28;20379;-70
2023/06/11 05:08:28;;;;;;;10.07;3.92;;;;;;;14.92;58.75;102010.06;4980443;28;20026;-70
2023/06/11 05:10:56;;;;;;;7.65;2.40;;;;;;;15.07;58.47;102000.41;4996507;28;20037;-70
2023/06/11 05:13:25;;;;;;;6.10;2.58;;;;;;;14.92;58.93;102012.72;5013830;28;20096;-72
2023/06/11 05:15:59;;;;;;;7.30;2.55;;;;;;;14.98;58.47;102007.06;4997884;28;20010;-71
2023/06/11 05:18:25;;;;;;;5.68;2.63;;;;;;;15.04;58.88;102006.78;5018135;28;20104;-71
2023/06/11 05:20:51;;;;;;;5.68;2.88;;;;;;;14.96;58.85;102008.97;4998445;28;20026;-71
2023/06/11 05:23:17;;;;;;;4.85;2.45;;;;;;;15.02;57.92;102005.97;4982425;28;20022;-71
2023/06/11 05:25:46;;;;;;;4.40;2.60;;;;;;;15.07;58.01;102009.28;4982379;28;20029;-72
2023/06/11 05:28:13;;;;;;;4.90;2.40;;;;;;;15.22;58.04;102001.44;4998580;28;20028;-71
2023/06/11 05:30:43;;;;;;;5.88;2.60;;;;;;;15.42;57.19;102001.25;4981782;28;20112;-71
2023/06/11 05:33:08;;;;;;;6.53;3.10;;;;;;;15.28;57.24;102002.00;4982519;28;20025;-71
2023/06/11 05:35:34;;;;;;;4.72;2.55;;;;;;;15.62;56.42;101995.84;4998282;28;20068;-72
2023/06/11 05:38:03;;;;;;;9.57;2.67;;;;;;;15.67;57.08;102000.00;4998112;28;20503;-70
2023/06/11 05:40:29;;;;;;;4.60;2.95;;;;;;;15.60;57.51;101990.59;5015218;28;20505;-71
2023/06/11 05:42:54;;;;;;;6.85;2.95;;;;;;;15.63;57.20;101992.22;4997810;28;20049;-70
2023/06/11 05:45:19;;;;;;;5.22;2.72;;;;;;;15.60;57.94;101998.59;5015231;28;20030;-71
2023/06/11 05:47:45;;;;;;;7.13;2.60;;;;;;;15.66;57.95;101997.41;5014865;28;20379;-71
2023/06/11 05:50:11;;;;;;;4.80;2.58;;;;;;;15.73;57.59;101986.34;4997518;28;20127;-71
2023/06/11 05:52:36;;;;;;;5.47;2.65;;;;;;;15.88;57.07;102002.50;4997516;28;20483;-71
2023/06/11 05:55:02;;;;;;;5.78;2.67;;;;;;;15.95;56.44;102003.88;4998435;28;20064;-71
2023/06/11 05:57:27;;;;;;;5.05;2.50;;;;;;;16.02;56.78;102010.59;5034777;28;20022;-71
2023/06/11 05:59:53;;;;;;;6.10;2.72;;;;;;;16.13;56.38;102007.34;5017099;28;20561;-70
2023/06/11 06:02:18;;;;;;;7.82;2.65;;;;;;;16.34;55.92;102015.13;5016971;28;20566;-71
2023/06/11 06:04:48;;;;;;;6.10;2.72;;;;;;;16.54;55.11;102015.81;5017334;28;20025;-72
2023/06/11 06:07:14;;;;;;;7.32;2.80;;;;;;;16.49;55.86;102013.41;4999875;28;20021;-71
2023/06/11 06:09:40;;;;;;;6.47;2.65;;;;;;;16.67;55.05;102000.81;5034602;28;20505;-72
2023/06/11 06:12:05;;;;;;;6.50;3.03;;;;;;;16.97;54.07;102007.13;4987730;28;20021;-70
2023/06/11 06:14:31;;;;;;;7.13;2.72;;;;;;;16.97;54.32;102007.13;4998586;28;20026;-70
2023/06/11 06:16:57;;;;;;;5.25;2.45;;;;;;;17.11;53.34;102009.91;5007743;28;20025;-71
2023/06/11 06:19:22;;;;;;;5.38;2.80;;;;;;;17.14;53.99;102014.19;5000332;28;20037;-70
2023/06/11 06:21:47;;;;;;;6.43;3.03;;;;;;;17.39;52.72;102002.91;5026379;28;20092;-71
2023/06/11 06:24:13;;;;;;;7.90;2.97;;;;;;;17.31;53.04;102005.19;5014399;28;20028;-71
2023/06/11 06:26:40;;;;;;;6.82;3.83;;;;;;;17.45;52.09;102002.53;5012844;28;20033;-71
2023/06/11 06:29:12;;;;;;;8.45;2.90;;;;;;;17.49;52.18;102006.72;5013866;28;20049;-70
2023/06/11 06:31:40;;;;;;;6.20;3.03;;;;;;;17.70;51.93;102003.69;5007202;28;20048;-71
2023/06/11 06:34:06;;;;;;;5.28;2.72;;;;;;;17.97;50.30;102005.63;5016260;28;20052;-71
2023/06/11 06:36:31;;;;;;;4.50;2.55;;;;;;;17.99;50.83;102001.03;5016579;28;20029;-70
2023/06/11 06:38:57;;;;;;;5.68;2.80;;;;;;;17.94;49.87;101997.78;5015400;28;20051;-70
2023/06/11 06:41:22;;;;;;;8.23;2.97;;;;;;;17.95;50.17;102001.31;5016112;28;20064;-72
2023/06/11 06:43:47;;;;;;;4.93;2.72;;;;;;;18.19;49.89;102006.97;5012817;28;20021;-72
2023/06/11 06:46:13;;;;;;;6.15;3.05;;;;;;;18.38;48.79;102005.78;5029555;28;20017;-72
2023/06/11 06:48:38;;;;;;;6.32;2.90;;;;;;;18.38;49.63;102001.28;5013043;28;20042;-71
2023/06/11 06:51:04;;;;;;;11.63;3.15;;;;;;;18.59;48.86;101999.03;5030201;28;20037;-72
2023/06/11 06:53:30;;;;;;;6.38;2.60;;;;;;;18.54;48.81;101992.25;5011184;28;20022;-72
2023/06/11 06:55:55;;;;;;;6.10;3.00;;;;;;;18.51;49.17;102004.00;5028018;28;20040;-72
2023/06/11 06:58:20;;;;;;;5.90;3.00;;;;;;;18.71;48.80;101999.19;5000401;28;20121;-73
2023/06/11 07:00:46;;;;;;;7.25;3.22;;;;;;;18.67;49.02;101995.84;5013896;28;20041;-74
2023/06/11 07:03:14;;;;;;;7.05;3.05;;;;;;;18.96;47.76;101997.53;4980994;28;20026;-72
2023/06/11 07:05:41;;;;;;;6.25;3.20;;;;;;;19.08;47.90;102005.66;5013976;28;20057;-71
2023/06/11 07:08:08;;;;;;;4.95;2.78;;;;;;;19.23;47.30;102002.91;5013408;28;20022;-72
2023/06/11 07:10:34;;;;;;;8.05;3.15;;;;;;;19.17;47.04;102001.47;4996100;28;20502;-71
2023/06/11 07:12:59;;;;;;;6.28;2.70;;;;;;;19.27;47.72;101999.03;4995888;28;20030;-72
2023/06/11 07:15:24;;;;;;;5.40;2.92;;;;;;;19.39;46.82;102005.38;5013409;28;20029;-72
2023/06/11 07:17:50;;;;;;;7.07;3.05;;;;;;;19.42;46.95;101997.13;4996825;28;20049;-74
2023/06/11 07:20:15;;;;;;;10.65;3.50;;;;;;;19.30;47.69;101998.81;5014069;28;20029;-73
2023/06/11 07:22:41;;;;;;;6.72;2.90;;;;;;;19.41;47.46;101999.91;5012803;28;20026;-71
2023/06/11 07:25:07;;;;;;;6.13;3.00;;;;;;;19.78;46.27;101987.44;4995261;28;20471;-69
2023/06/11 07:27:32;;;;;;;6.50;3.17;;;;;;;19.83;46.60;101994.31;4994505;28;20049;-70
2023/06/11 07:29:58;;;;;;;7.65;3.60;;;;;;;19.71;47.10;101999.59;4994976;28;20168;-71
2023/06/11 07:32:23;;;;;;;5.90;3.05;;;;;;;19.81;47.10;101997.97;4994886;28;20113;-71
2023/06/11 07:34:48;;;;;;;7.97;3.05;;;;;;;20.10;45.28;101996.88;4995334;28;20029;-72
2023/06/11 07:37:14;;;;;;;6.05;2.92;;;;;;;20.21;45.06;101998.81;5014259;28;20376;-70
2023/06/11 07:39:39;;;;;;;6.43;2.80;;;;;;;20.08;45.01;101994.31;4999108;28;20376;-71
2023/06/11 07:42:05;;;;;;;5.90;3.20;;;;;;;20.31;46.01;101999.84;5016264;28;20045;-72
2023/06/11 07:44:30;;;;;;;6.88;2.67;;;;;;;20.45;45.23;102000.66;4998762;28;20056;-72
2023/06/11 07:46:56;;;;;;;5.38;3.17;;;;;;;20.66;43.82;101993.69;5016527;28;20068;-70
2023/06/11 07:49:21;;;;;;;5.50;3.00;;;;;;;20.86;44.08;102004.81;4982318;28;20079;-71
2023/06/11 07:51:47;;;;;;;7.65;4.47;;;;;;;20.56;43.73;101998.03;4998043;28;20478;-71
2023/06/11 07:54:12;;;;;;;8.68;3.58;;;;;;;20.59;43.97;101989.72;4997818;28;20471;-70
2023/06/11 07:56:37;;;;;;;8.27;3.55;;;;;;;21.19;43.48;101992.44;4998275;28;20022;-71
2023/06/11 07:59:03;;;;;;;10.27;3.92;;;;;;;21.09;44.06;101996.81;5015562;28;20032;-71
2023/06/11 08:01:28;;;;;;;7.72;4.28;;;;;;;21.30;43.40;101998.84;4981530;28;20125;-72
2023/06/11 08:03:54;;;;;;;8.27;3.42;;;;;;;21.18;42.00;101996.13;5001052;28;20032;-72
2023/06/11 08:06:20;;;;;;;7.57;3.60;;;;;;;21.62;41.02;101988.25;5015677;28;20036;-71
2023/06/11 08:08:47;;;;;;;6.68;3.05;;;;;;;21.63;40.87;101991.81;4998253;28;20545;-71
2023/06/11 08:11:13;;;;;;;4.97;3.42;;;;;;;21.64;40.96;101983.63;5015511;28;20030;-72
2023/06/11 08:13:40;;;;;;;7.25;3.13;;;;;;;21.56;41.26;101986.03;5015342;28;20040;-72
2023/06/11 08:16:06;;;;;;;6.45;3.03;;;;;;;21.84;40.47;101995.50;5015419;28;20372;-73
2023/06/11 08:18:32;;;;;;;9.55;3.70;;;;;;;21.95;39.97;101989.25;4997790;28;20033;-72
2023/06/11 08:20:58;;;;;;;6.28;3.28;;;;;;;22.26;39.95;101983.19;4997448;28;20026;-71
2023/06/11 08:23:24;;;;;;;4.38;3.30;;;;;;;22.32;39.12;101977.31;4981888;28;20108;-71
2023/06/11 08:25:49;;;;;;;6.05;3.33;;;;;;;22.32;40.11;101988.09;5014550;28;20539;-72
2023/06/11 08:28:15;;;;;;;6.63;3.17;;;;;;;22.12;38.78;101981.66;5014859;28;20034;-72
2023/06/11 08:30:41;;;;;;;7.80;2.95;;;;;;;22.43;38.99;101985.38;4997803;28;20060;-72
2023/06/11 08:33:06;;;;;;;4.57;2.85;;;;;;;22.61;38.42;101984.88;4997713;28;20117;-71
2023/06/11 08:35:32;;;;;;;6.28;3.45;;;;;;;22.90;37.92;101981.53;5014969;28;20443;-72
2023/06/11 08:37:57;;;;;;;7.07;3.45;;;;;;;22.96;37.45;101972.94;4997254;28;20049;-72
2023/06/11 08:40:23;;;;;;;5.47;3.00;;;;;;;23.01;37.91;101984.19;4997540;28;20042;-73
2023/06/11 08:42:49;;;;;;;4.38;2.97;;;;;;;23.29;37.13;101979.16;5015411;28;20142;-72
2023/06/11 08:45:14;;;;;;;6.60;3.08;;;;;;;23.34;38.67;101978.75;4997493;28;20026;-72
2023/06/11 08:47:48;;;;;;;5.55;3.47;;;;;;;23.39;37.41;101975.66;4996571;28;20513;-71
2023/06/11 08:50:13;;;;;;;7.82;3.45;;;;;;;23.22;38.12;101977.97;4996237;28;20026;-72
2023/06/11 08:52:40;;;;;;;5.32;3.40;;;;;;;23.58;36.16;101964.13;4997224;28;20509;-74
2023/06/11 08:55:06;;;;;;;7.47;3.47;;;;;;;23.51;36.54;101971.03;4980970;28;20021;-71
2023/06/11 08:57:32;;;;;;;6.30;3.50;;;;;;;23.52;37.27;101972.75;4997001;28;20045;-72
2023/06/11 08:59:57;;;;;;;5.57;3.22;;;;;;;23.33;37.31;101976.19;5014919;28;20513;-73
2023/06/11 09:02:22;;;;;;;6.15;3.63;;;;;;;23.72;36.76;101968.28;4996639;28;20045;-72
2023/06/11 09:04:48;;;;;;;6.53;3.58;;;;;;;23.51;37.30;101980.00;4996986;28;20022;-72
2023/06/11 09:07:23;;;;;;;8.50;3.35;;;;;;;23.84;37.19;101969.03;4997373;28;20034;-72
2023/06/11 09:10:01;;;;;;;5.32;2.92;;;;;;;24.05;36.64;101966.31;4996564;28;20137;-72
2023/06/11 09:12:27;;;;;;;8.27;2.80;;;;;;;23.78;37.11;101970.44;5014010;28;20431;-72
2023/06/11 09:14:52;;;;;;;6.95;3.22;;;;;;;23.95;37.09;101970.78;5014236;28;20057;-71
2023/06/11 09:17:18;;;;;;;7.53;3.20;;;;;;;24.08;35.61;101963.31;4980754;28;20076;-71
2023/06/11 09:19:43;;;;;;;9.73;3.70;;;;;;;24.11;35.31;101972.97;4996381;28;20112;-72
2023/06/11 09:22:08;;;;;;;8.65;3.08;;;;;;;24.17;35.70;101970.59;4996288;28;20083;-72
2023/06/11 09:24:34;;;;;;;5.40;3.05;;;;;;;24.51;35.27;101966.66;4996589;28;20388;-73
2023/06/11 09:27:00;;;;;;;5.43;3.35;;;;;;;24.08;35.56;101974.13;4996708;28;20030;-72
2023/06/11 09:29:27;;;;;;;6.10;3.33;;;;;;;24.62;34.58;101962.97;5014323;28;20057;-72
2023/06/11 09:32:06;;;;;;;9.15;3.45;;;;;;;24.53;34.75;101969.22;4996417;28;20029;-71
2023/06/11 09:34:32;;;;;;;8.55;3.60;;;;;;;24.43;34.34;101971.94;4996721;28;20044;-72
2023/06/11 09:36:57;;;;;;;6.22;3.08;;;;;;;24.50;34.19;101966.78;5014608;28;20133;-71
2023/06/11 09:39:23;;;;;;;5.18;2.97;;;;;;;24.68;35.38;101964.25;5014042;28;20042;-72
2023/06/11 09:41:51;;;;;;;8.05;3.05;;;;;;;25.10;34.29;101976.63;4996338;28;20041;-73
2023/06/11 09:44:17;;;;;;;7.25;3.45;;;;;;;24.97;34.36;101972.38;5013767;28;20026;-72
2023/06/11 09:46:44;;;;;;;8.02;3.45;;;;;;;24.97;34.60;101966.97;4995790;28;20026;-73
2023/06/11 09:49:11;;;;;;;4.88;3.10;;;;;;;24.62;34.29;101970.22;4996302;28;20021;-72
2023/06/11 09:51:38;;;;;;;7.03;3.75;;;;;;;24.66;34.88;101969.81;4979784;28;20024;-73
2023/06/11 09:54:06;;;;;;;6.20;3.38;;;;;;;25.12;34.48;101969.22;4995925;28;20109;-73
2023/06/11 09:56:32;;;;;;;9.43;3.40;;;;;;;25.32;33.04;101964.63;4996943;28;20026;-71
2023/06/11 09:58:57;;;;;;;10.07;3.33;;;;;;;25.12;33.29;101969.22;4996008;28;20088;-72
2023/06/11 10:01:24;;;;;;;8.85;3.22;;;;;;;25.22;33.51;101974.63;4996301;28;20045;-71
2023/06/11 10:03:50;;;;;;;7.18;4.07;;;;;;;25.28;34.11;101974.88;4979524;28;20026;-72
2023/06/11 10:06:19;;;;;;;7.38;3.30;;;;;;;25.26;34.15;101971.47;5013995;28;20026;-72
2023/06/11 10:08:45;;;;;;;6.78;3.20;;;;;;;25.37;31.77;101973.16;4996280;28;20025;-74
2023/06/11 10:11:11;;;;;;;6.25;3.58;;;;;;;24.95;31.06;101968.97;4996181;28;20065;-74
2023/06/11 10:13:37;;;;;;;10.05;3.60;;;;;;;24.76;31.24;101963.56;4996115;28;20416;-71
2023/06/11 10:16:03;;;;;;;12.43;3.85;;;;;;;25.06;32.25;101964.38;4996205;28;20018;-74
2023/06/11 10:18:30;;;;;;;5.88;3.10;;;;;;;25.33;31.26;101964.44;4996022;28;20113;-73
2023/06/11 10:21:03;;;;;;;5.30;3.10;;;;;;;25.44;31.00;101958.00;4979569;28;20025;-75
2023/06/11 10:23:38;;;;;;;6.57;3.60;;;;;;;25.45;30.32;101958.88;4979545;28;20463;-75
2023/06/11 10:26:04;;;;;;;10.25;3.92;;;;;;;25.75;30.42;101955.09;4996276;28;20053;-74
2023/06/11 10:28:51;;;;;;;5.47;3.40;;;;;;;25.74;29.50;101963.34;4979683;28;20072;-75
2023/06/11 10:31:30;;;;;;;7.78;3.90;;;;;;;25.75;30.45;101954.22;4979550;28;20050;-73
2023/06/11 10:34:03;;;;;;;8.07;3.58;;;;;;;25.64;29.58;101946.28;4986765;28;20029;-74
2023/06/11 10:36:40;;;;;;;5.07;3.35;;;;;;;25.90;29.73;101936.44;5017356;28;20410;-71
2023/06/11 10:39:12;;;;;;;8.63;3.75;;;;;;;25.93;28.97;101950.69;5000701;28;20052;-70
2023/06/11 10:41:39;;;;;;;5.10;3.25;;;;;;;26.05;28.44;101944.94;5015994;28;20049;-71
2023/06/11 10:44:04;;;;;;;8.73;3.20;;;;;;;26.01;27.77;101942.66;5019720;28;20084;-72
2023/06/11 10:46:30;;;;;;;5.53;3.00;;;;;;;26.04;27.64;101926.94;4997472;28;20443;-74
2023/06/11 10:48:55;;;;;;;5.43;3.15;;;;;;;26.08;27.03;101941.03;4991896;28;20068;-73
2023/06/11 10:51:21;;;;;;;7.60;3.10;;;;;;;26.28;26.92;101940.97;5033877;28;20033;-72
2023/06/11 10:53:58;;;;;;;6.03;3.30;;;;;;;26.51;27.07;101944.06;5015409;28;20120;-71
2023/06/11 10:56:24;;;;;;;7.03;3.47;;;;;;;26.88;26.76;101936.75;5014197;28;20021;-72
2023/06/11 10:58:50;;;;;;;7.78;3.17;;;;;;;26.92;26.90;101940.88;5014199;28;20036;-71
2023/06/11 11:01:18;;;;;;;6.25;3.00;;;;;;;26.66;27.58;101935.38;4998056;28;20083;-73
2023/06/11 11:03:44;;;;;;;9.77;3.30;;;;;;;26.83;27.89;101936.34;5014705;28;20121;-72
2023/06/11 11:06:10;;;;;;;9.10;3.60;;;;;;;26.49;28.13;101938.78;4998128;28;20083;-72
2023/06/11 11:08:36;;;;;;;6.53;3.22;;;;;;;26.58;28.87;101933.44;4998454;28;20021;-73
2023/06/11 11:11:01;;;;;;;4.25;3.03;;;;;;;27.08;27.56;101933.84;5031593;28;20079;-73
2023/06/11 11:13:28;;;;;;;4.70;2.80;;;;;;;26.98;27.66;101934.81;5031917;28;20025;-71
2023/06/11 11:15:54;;;;;;;6.07;3.00;;;;;;;26.62;28.10;101929.41;5014130;28;20167;-71
2023/06/11 11:18:19;;;;;;;8.00;3.40;;;;;;;26.91;27.18;101931.03;5031411;28;20026;-71
2023/06/11 11:20:45;;;;;;;5.93;3.30;;;;;;;26.70;26.85;101923.19;5014342;28;20029;-72